Time;durP1;ratioP1;P1;durP2;ratioP2;P2;SDS_P1;SDS_P2;PMS_P1;PMS_P2;Temp;Humidity;BMP_temperature;BMP_pressure;BME280_temperature;BME280_humidity;BME280_pressure;Samples;Min_cycle;Max_cycle;Signal;HPM_P1;HPM_P2
2023/08/10 00:01:24;;;;;;;0.32;0.32;;;;;;;15.26;84.83;99568.00;4861913;29;20513;-85
2023/08/10 00:03:51;;;;;;;0.40;0.40;;;;;;;15.22;84.98;99566.88;4862366;29;20082;-85
2023/08/10 00:06:18;;;;;;;0.40;0.40;;;;;;;15.18;85.08;99567.41;4861899;29;20179;-83
2023/08/10 00:08:46;;;;;;;0.40;0.40;;;;;;;15.12;85.32;99565.75;4861917;29;20424;-84
2023/08/10 00:11:13;;;;;;;0.40;0.40;;;;;;;15.10;85.52;99569.78;4861816;29;20113;-83
2023/08/10 00:13:40;;;;;;;0.40;0.40;;;;;;;15.01;85.79;99566.72;4861697;29;20064;-83
2023/08/10 00:16:07;;;;;;;0.40;0.40;;;;;;;15.02;85.96;99573.81;4861457;29;20083;-83
2023/08/10 00:18:34;;;;;;;0.40;0.40;;;;;;;15.01;86.21;99571.34;4861863;29;20424;-82
2023/08/10 00:21:03;;;;;;;0.40;0.40;;;;;;;14.97;86.26;99573.78;4868694;29;20050;-83
2023/08/10 00:23:30;;;;;;;0.40;0.40;;;;;;;14.96;86.36;99577.56;4871668;29;20450;-83
2023/08/10 00:25:57;;;;;;;0.40;0.40;;;;;;;14.95;86.39;99573.22;4861688;29;20049;-85
2023/08/10 00:28:24;;;;;;;0.40;0.40;;;;;;;14.93;86.38;99580.78;4861439;29;20081;-83
2023/08/10 00:30:51;;;;;;;0.32;0.32;;;;;;;14.90;86.67;99579.41;4829660;29;20193;-83
2023/08/10 00:33:18;;;;;;;0.40;0.40;;;;;;;14.87;86.68;99582.66;4861220;29;20085;-84
2023/08/10 00:35:59;;;;;;;0.40;0.40;;;;;;;14.82;86.89;99579.09;4861528;29;20555;-84
2023/08/10 00:38:26;;;;;;;0.40;0.40;;;;;;;14.77;87.16;99582.56;4844451;29;20045;-84
2023/08/10 00:40:53;;;;;;;0.40;0.40;;;;;;;14.74;87.30;99575.75;4861981;29;20148;-83
2023/08/10 00:43:21;;;;;;;0.30;0.30;;;;;;;14.74;87.38;99589.34;4845371;29;20057;-83
2023/08/10 00:45:51;;;;;;;0.40;0.40;;;;;;;14.74;87.52;99586.63;4862572;29;20053;-83
2023/08/10 00:48:24;;;;;;;0.40;0.40;;;;;;;14.71;87.50;99594.44;4845729;29;20109;-85
2023/08/10 00:50:52;;;;;;;0.40;0.40;;;;;;;14.71;87.59;99592.56;4845059;29;20148;-85
2023/08/10 00:53:20;;;;;;;0.40;0.40;;;;;;;14.67;87.69;99599.59;4829009;29;20125;-85
2023/08/10 00:55:51;;;;;;;0.40;0.40;;;;;;;14.67;87.81;99607.75;4844693;29;20121;-85
2023/08/10 00:58:19;;;;;;;0.30;0.30;;;;;;;14.63;88.06;99609.31;4860927;29;20081;-85
2023/08/10 01:00:47;;;;;;;0.40;0.40;;;;;;;14.59;88.33;99612.81;4844821;29;20049;-85
2023/08/10 01:03:15;;;;;;;0.40;0.40;;;;;;;14.60;88.32;99617.16;4844499;29;20102;-85
2023/08/10 01:05:53;;;;;;;0.40;0.40;;;;;;;14.60;88.14;99623.41;4860008;29;20157;-85
2023/08/10 01:08:51;;;;;;;0.40;0.40;;;;;;;14.58;88.36;99616.59;4844153;29;20055;-84
2023/08/10 01:11:30;;;;;;;0.40;0.40;;;;;;;14.61;88.47;99629.66;4860887;29;20053;-85
2023/08/10 01:14:25;;;;;;;0.40;0.40;;;;;;;14.62;88.43;99629.41;4844292;29;20057;-84
2023/08/10 01:16:53;;;;;;;0.40;0.40;;;;;;;14.55;88.28;99639.66;4860708;29;20065;-84
2023/08/10 01:19:35;;;;;;;0.40;0.40;;;;;;;14.52;88.79;99634.72;4861106;29;20474;-85
2023/08/10 01:22:25;;;;;;;0.40;0.40;;;;;;;14.52;88.95;99642.84;4829321;29;20054;-84
2023/08/10 01:25:05;;;;;;;0.40;0.40;;;;;;;14.51;88.99;99647.47;4803780;29;20113;-84
2023/08/10 01:27:36;;;;;;;0.40;0.40;;;;;;;14.49;88.93;99646.09;4865594;29;20069;-83
2023/08/10 01:30:05;;;;;;;0.40;0.40;;;;;;;14.38;88.97;99633.47;4880757;29;20060;-84
2023/08/10 01:32:32;;;;;;;0.40;0.40;;;;;;;14.45;89.08;99653.91;4853306;29;20049;-83
2023/08/10 01:35:00;;;;;;;0.40;0.40;;;;;;;14.46;89.10;99644.72;4843971;29;20049;-82
2023/08/10 01:37:29;;;;;;;0.30;0.30;;;;;;;14.45;89.08;99651.19;4860623;29;20064;-84
2023/08/10 01:40:03;;;;;;;0.40;0.40;;;;;;;14.42;88.88;99648.19;4860548;29;20111;-85
2023/08/10 01:42:37;;;;;;;0.40;0.40;;;;;;;14.39;89.19;99651.41;4860432;29;20057;-84
2023/08/10 01:45:05;;;;;;;0.40;0.40;;;;;;;14.40;89.19;99656.56;4850582;29;20050;-84
2023/08/10 01:47:36;;;;;;;0.40;0.40;;;;;;;14.39;89.29;99665.81;4845798;29;20061;-83
2023/08/10 01:50:07;;;;;;;0.40;0.40;;;;;;;14.39;89.32;99664.97;4875438;29;20513;-83
2023/08/10 01:52:49;;;;;;;0.40;0.40;;;;;;;14.38;89.54;99660.59;4861905;29;20075;-83
2023/08/10 01:55:22;;;;;;;0.40;0.40;;;;;;;14.35;89.66;99671.97;4859783;29;20592;-84
2023/08/10 01:58:02;;;;;;;0.40;0.40;;;;;;;14.18;89.45;99655.75;4859000;29;20050;-82
2023/08/10 02:00:30;;;;;;;0.40;0.40;;;;;;;14.25;89.85;99676.19;4859099;29;20061;-85
2023/08/10 02:02:57;;;;;;;0.50;0.50;;;;;;;14.27;89.76;99681.41;4859257;29;20065;-82
2023/08/10 02:05:28;;;;;;;0.40;0.40;;;;;;;14.29;89.74;99679.25;4858963;29;20490;-84
2023/08/10 02:07:55;;;;;;;0.40;0.40;;;;;;;14.27;89.72;99670.53;4860117;29;20057;-83
2023/08/10 02:10:22;;;;;;;0.40;0.40;;;;;;;14.25;89.76;99678.91;4858363;29;20057;-83
2023/08/10 02:12:53;;;;;;;0.50;0.50;;;;;;;14.25;89.57;99678.91;4859725;29;20501;-84
2023/08/10 02:15:21;;;;;;;0.40;0.40;;;;;;;14.24;89.75;99682.72;4858139;29;20122;-83
2023/08/10 02:17:48;;;;;;;0.40;0.40;;;;;;;14.25;89.79;99687.06;4858485;29;20084;-84
2023/08/10 02:20:16;;;;;;;0.40;0.40;;;;;;;14.25;89.72;99692.50;4858736;29;20128;-83
2023/08/10 02:22:49;;;;;;;0.40;0.40;;;;;;;14.28;89.65;99696.59;4858688;29;20519;-84
2023/08/10 02:25:17;;;;;;;0.40;0.40;;;;;;;14.25;89.65;99706.06;4859774;29;20071;-83
2023/08/10 02:27:46;;;;;;;0.40;0.40;;;;;;;14.23;89.72;99705.53;4859828;29;20147;-84
2023/08/10 02:30:14;;;;;;;0.40;0.40;;;;;;;14.26;89.74;99712.34;4859510;29;20513;-83
2023/08/10 02:32:45;;;;;;;0.50;0.50;;;;;;;14.24;89.67;99709.06;4859510;29;20058;-83
2023/08/10 02:35:14;;;;;;;0.40;0.40;;;;;;;14.26;89.64;99710.44;4858396;29;20057;-84
2023/08/10 02:37:41;;;;;;;0.40;0.40;;;;;;;14.29;89.69;99712.66;4858286;29;20514;-83
2023/08/10 02:40:13;;;;;;;0.40;0.40;;;;;;;14.30;89.36;99717.03;4859733;29;20046;-83
2023/08/10 02:42:45;;;;;;;0.40;0.40;;;;;;;14.33;89.50;99721.13;4858082;29;20049;-81
2023/08/10 02:45:13;;;;;;;0.40;0.40;;;;;;;14.32;89.43;99728.44;4868137;29;20030;-83
2023/08/10 02:47:41;;;;;;;0.40;0.40;;;;;;;14.35;89.37;99729.00;4873479;29;20096;-84
2023/08/10 02:50:11;;;;;;;0.40;0.40;;;;;;;14.41;89.29;99736.16;4859385;29;20081;-85
2023/08/10 02:52:40;;;;;;;0.40;0.40;;;;;;;14.45;89.03;99734.56;4859462;29;20795;-84
2023/08/10 02:55:10;;;;;;;0.40;0.40;;;;;;;14.48;88.80;99731.34;4858808;29;20065;-83
2023/08/10 02:57:37;;;;;;;0.40;0.40;;;;;;;14.53;88.64;99731.44;4841557;29;20053;-83
2023/08/10 03:00:06;;;;;;;0.40;0.40;;;;;;;14.55;88.26;99731.19;4833684;29;20144;-84
2023/08/10 03:02:34;;;;;;;0.40;0.40;;;;;;;14.59;87.96;99738.59;4840975;29;20113;-84
2023/08/10 03:05:06;;;;;;;0.40;0.40;;;;;;;14.61;87.68;99731.00;4842278;29;20057;-85
2023/08/10 03:07:33;;;;;;;0.40;0.40;;;;;;;14.64;87.58;99733.22;4841908;29;20547;-87
2023/08/10 03:10:01;;;;;;;0.40;0.40;;;;;;;14.65;87.33;99734.84;4842217;29;20049;-85
2023/08/10 03:12:31;;;;;;;0.40;0.40;;;;;;;14.68;87.32;99736.22;4842466;29;20081;-86
2023/08/10 03:14:59;;;;;;;0.40;0.40;;;;;;;14.74;87.11;99741.47;4842480;29;20129;-87
2023/08/10 03:17:26;;;;;;;0.40;0.40;;;;;;;14.79;87.00;99737.19;4859264;29;20132;-86
2023/08/10 03:19:56;;;;;;;0.40;0.40;;;;;;;14.83;86.65;99732.88;4832797;29;20049;-85
2023/08/10 03:22:26;;;;;;;0.40;0.40;;;;;;;14.89;86.52;99737.31;4863908;29;20053;-85
2023/08/10 03:24:55;;;;;;;0.40;0.40;;;;;;;14.98;86.17;99738.47;4851488;29;20063;-83
2023/08/10 03:27:26;;;;;;;0.40;0.40;;;;;;;15.03;85.75;99737.72;4843301;29;20089;-81
2023/08/10 03:29:53;;;;;;;0.40;0.40;;;;;;;15.13;85.21;99745.97;4859370;29;20061;-84
2023/08/10 03:32:21;;;;;;;0.40;0.40;;;;;;;15.19;85.01;99747.66;4841959;29;20141;-82
2023/08/10 03:34:48;;;;;;;0.50;0.50;;;;;;;15.26;84.63;99744.75;4841290;29;20050;-82
2023/08/10 03:37:15;;;;;;;0.50;0.50;;;;;;;15.33;84.27;99748.06;4839930;29;20050;-83
2023/08/10 03:39:43;;;;;;;0.40;0.40;;;;;;;15.37;83.98;99750.03;4826298;29;20060;-82
2023/08/10 03:42:10;;;;;;;0.40;0.40;;;;;;;15.41;83.59;99747.59;4826337;29;20050;-82
2023/08/10 03:44:40;;;;;;;0.40;0.40;;;;;;;15.48;83.62;99756.38;4840766;29;20113;-83
2023/08/10 03:47:07;;;;;;;0.40;0.40;;;;;;;15.55;83.03;99756.16;4840917;29;20053;-83
2023/08/10 03:49:35;;;;;;;0.40;0.40;;;;;;;15.63;82.91;99763.84;4856995;29;20425;-83
2023/08/10 03:52:05;;;;;;;0.40;0.40;;;;;;;15.71;82.73;99762.59;4857322;29;20056;-80
2023/08/10 03:54:33;;;;;;;0.40;0.40;;;;;;;15.77;82.36;99759.66;4858002;29;20522;-84
2023/08/10 03:57:00;;;;;;;0.40;0.40;;;;;;;15.85;81.91;99761.06;4857783;29;20417;-82
2023/08/10 03:59:27;;;;;;;0.40;0.40;;;;;;;15.91;81.35;99760.00;4841666;29;20049;-82
2023/08/10 04:01:54;;;;;;;0.40;0.40;;;;;;;15.96;81.21;99768.22;4857163;29;20054;-86
2023/08/10 04:04:21;;;;;;;0.40;0.40;;;;;;;16.04;80.94;99770.44;4841586;29;20055;-82
2023/08/10 04:06:48;;;;;;;0.40;0.40;;;;;;;16.14;80.75;99763.44;4858056;29;20057;-85
2023/08/10 04:09:15;;;;;;;0.40;0.40;;;;;;;16.23;80.10;99770.84;4847909;29;20504;-85
2023/08/10 04:11:43;;;;;;;0.30;0.30;;;;;;;16.27;79.67;99773.88;4858081;29;20069;-83
2023/08/10 04:14:11;;;;;;;0.40;0.40;;;;;;;16.32;79.30;99767.63;4858084;29;20060;-82
2023/08/10 04:16:38;;;;;;;0.40;0.40;;;;;;;16.34;78.94;99770.91;4841727;29;20058;-84
2023/08/10 04:19:08;;;;;;;0.32;0.32;;;;;;;16.32;78.69;99764.91;4842202;29;20136;-83
2023/08/10 04:21:36;;;;;;;0.40;0.40;;;;;;;16.51;78.55;99774.28;4812270;29;20552;-81
2023/08/10 04:24:03;;;;;;;0.40;0.40;;;;;;;16.58;78.06;99774.84;4865375;29;20057;-83
2023/08/10 04:26:31;;;;;;;0.40;0.40;;;;;;;16.61;77.63;99774.31;4833815;29;20053;-81
2023/08/10 04:28:59;;;;;;;0.40;0.40;;;;;;;16.74;77.57;99772.22;4858210;29;20049;-85
2023/08/10 04:31:26;;;;;;;0.40;0.40;;;;;;;16.82;77.07;99777.97;4858401;29;20078;-82
2023/08/10 04:33:55;;;;;;;0.40;0.40;;;;;;;16.82;76.86;99780.72;4858334;29;20090;-81
2023/08/10 04:36:22;;;;;;;0.40;0.40;;;;;;;16.90;76.71;99785.63;4858328;29;20052;-83
2023/08/10 04:38:51;;;;;;;0.40;0.40;;;;;;;17.00;76.21;99779.41;4858663;29;20453;-82
2023/08/10 04:41:21;;;;;;;0.40;0.40;;;;;;;17.14;75.92;99787.06;4853485;29;20073;-82
2023/08/10 04:43:49;;;;;;;0.40;0.40;;;;;;;17.25;75.49;99778.66;4848454;29;20057;-82
2023/08/10 04:46:16;;;;;;;0.40;0.40;;;;;;;17.35;75.56;99788.78;4835910;29;20053;-83
2023/08/10 04:48:46;;;;;;;0.38;0.38;;;;;;;17.46;74.76;99781.41;4862202;29;20065;-83
2023/08/10 04:51:16;;;;;;;0.40;0.40;;;;;;;17.55;73.92;99790.72;4853066;29;20052;-84
2023/08/10 04:53:43;;;;;;;0.40;0.40;;;;;;;17.57;73.91;99785.78;4879709;29;20053;-83
2023/08/10 04:56:10;;;;;;;0.40;0.40;;;;;;;17.67;74.00;99793.16;4862931;29;20076;-84
2023/08/10 04:58:44;;;;;;;0.30;0.30;;;;;;;17.74;73.39;99789.06;4866942;29;20057;-83
2023/08/10 05:01:14;;;;;;;0.30;0.30;;;;;;;17.82;73.61;99789.66;4856943;29;20052;-82
2023/08/10 05:03:41;;;;;;;0.40;0.40;;;;;;;17.98;73.46;99794.03;4518780;29;9999587;-82
2023/08/10 05:06:08;;;;;;;0.40;0.40;;;;;;;18.09;72.80;99784.72;4860221;29;20106;-83
2023/08/10 05:08:35;;;;;;;0.30;0.30;;;;;;;18.10;71.71;99788.25;4864884;29;20053;-82
2023/08/10 05:11:03;;;;;;;0.30;0.30;;;;;;;18.09;71.49;99792.09;4853298;29;20129;-83
2023/08/10 05:13:30;;;;;;;0.40;0.40;;;;;;;18.08;71.33;99785.81;4849844;29;20140;-82
2023/08/10 05:15:58;;;;;;;0.40;0.40;;;;;;;18.03;71.35;99788.56;4858394;29;20057;-82
2023/08/10 05:18:26;;;;;;;0.30;0.30;;;;;;;18.08;71.59;99788.56;4857232;29;20060;-83
2023/08/10 05:20:53;;;;;;;0.40;0.40;;;;;;;18.19;71.53;99784.69;4848053;29;20061;-82
2023/08/10 05:23:20;;;;;;;0.40;0.40;;;;;;;18.29;71.20;99791.25;4852391;29;20049;-82
2023/08/10 05:25:48;;;;;;;0.40;0.40;;;;;;;18.44;70.92;99793.13;4854462;29;20061;-82
2023/08/10 05:28:19;;;;;;;0.40;0.40;;;;;;;18.58;70.59;99792.28;4857699;29;20828;-81
2023/08/10 05:30:46;;;;;;;0.40;0.40;;;;;;;18.60;70.28;99797.44;4848690;29;20084;-83
2023/08/10 05:33:13;;;;;;;0.40;0.40;;;;;;;18.57;70.06;99798.00;4839806;29;20126;-81
2023/08/10 05:35:42;;;;;;;0.30;0.30;;;;;;;18.62;69.93;99798.00;4838915;29;20077;-83
2023/08/10 05:38:15;;;;;;;0.30;0.30;;;;;;;18.67;69.81;99805.38;4844110;29;20049;-82
2023/08/10 05:40:43;;;;;;;0.30;0.30;;;;;;;18.60;70.04;99794.72;4850612;29;20084;-83
2023/08/10 05:43:13;;;;;;;0.30;0.30;;;;;;;18.59;69.71;99790.34;4846488;29;20053;-83
2023/08/10 05:45:42;;;;;;;0.30;0.30;;;;;;;18.73;69.60;99815.16;4832856;29;20140;-83
2023/08/10 05:48:10;;;;;;;0.40;0.40;;;;;;;18.73;69.76;99809.72;4839636;29;20467;-81
2023/08/10 05:50:38;;;;;;;0.40;0.40;;;;;;;18.82;69.43;99808.88;4838020;29;20158;-83
2023/08/10 05:53:06;;;;;;;0.30;0.30;;;;;;;18.86;69.03;99817.34;4837945;29;20142;-82
2023/08/10 05:55:40;;;;;;;0.40;0.40;;;;;;;18.89;69.05;99822.28;4828097;29;20065;-81
2023/08/10 05:58:11;;;;;;;0.30;0.30;;;;;;;18.99;68.83;99816.75;4853440;29;20408;-84
2023/08/10 06:01:03;;;;;;;0.30;0.30;;;;;;;19.15;68.30;99816.69;4857246;29;20064;-83
2023/08/10 06:03:30;;;;;;;0.30;0.30;;;;;;;19.25;68.05;99830.31;4841689;29;20457;-81
2023/08/10 06:06:01;;;;;;;0.40;0.40;;;;;;;19.28;67.87;99824.25;4841510;29;20062;-82
2023/08/10 06:08:30;;;;;;;0.40;0.40;;;;;;;19.22;67.59;99831.69;4839998;29;20064;-83
2023/08/10 06:11:01;;;;;;;0.40;0.40;;;;;;;19.24;67.75;99832.22;4841417;29;20050;-82
2023/08/10 06:13:39;;;;;;;0.30;0.30;;;;;;;19.35;67.62;99830.25;4839880;29;20054;-81
2023/08/10 06:16:07;;;;;;;0.30;0.30;;;;;;;19.40;67.28;99838.44;4840805;29;20421;-83
2023/08/10 06:18:36;;;;;;;0.40;0.40;;;;;;;19.51;67.19;99838.38;4824165;29;20053;-81
2023/08/10 06:21:06;;;;;;;0.30;0.30;;;;;;;19.67;66.79;99843.50;4841085;29;20083;-82
2023/08/10 06:23:36;;;;;;;0.30;0.30;;;;;;;19.70;66.60;99855.81;4840748;29;20510;-81
2023/08/10 06:26:06;;;;;;;0.32;0.32;;;;;;;19.67;66.33;99848.13;4809571;29;20130;-82
2023/08/10 06:28:34;;;;;;;0.40;0.40;;;;;;;19.79;66.13;99856.00;4839969;29;20062;-81
2023/08/10 06:31:09;;;;;;;0.30;0.30;;;;;;;19.98;65.67;99850.63;4840371;29;20116;-82
2023/08/10 06:33:37;;;;;;;0.40;0.40;;;;;;;20.06;65.33;99855.53;4840058;29;20058;-82
2023/08/10 06:36:07;;;;;;;0.30;0.30;;;;;;;20.09;64.98;99844.00;4840295;29;20058;-81
2023/08/10 06:38:35;;;;;;;0.30;0.30;;;;;;;20.05;64.74;99859.34;4832619;29;20062;-83
2023/08/10 06:41:08;;;;;;;0.30;0.30;;;;;;;20.00;65.18;99862.13;4843472;29;20425;-83
2023/08/10 06:43:35;;;;;;;0.30;0.30;;;;;;;20.08;64.91;99858.81;4853738;29;20049;-82
2023/08/10 06:46:05;;;;;;;0.40;0.40;;;;;;;20.26;64.52;99865.50;4842573;29;20053;-83
2023/08/10 06:48:36;;;;;;;0.32;0.32;;;;;;;20.45;64.44;99865.59;4830984;29;20053;-83
2023/08/10 06:51:04;;;;;;;0.30;0.30;;;;;;;20.57;63.55;99857.81;4832680;29;20374;-81
2023/08/10 06:53:35;;;;;;;0.30;0.30;;;;;;;20.58;63.36;99864.13;4847400;29;20058;-83
2023/08/10 06:56:23;;;;;;;0.30;0.30;;;;;;;20.58;63.23;99869.59;4843031;29;20050;-83
2023/08/10 06:58:51;;;;;;;0.30;0.30;;;;;;;20.53;63.00;99853.97;4849148;29;20115;-83
2023/08/10 07:01:43;;;;;;;0.30;0.30;;;;;;;20.53;62.87;99860.31;4847560;29;20140;-85
2023/08/10 07:04:20;;;;;;;0.30;0.30;;;;;;;20.54;62.88;99855.63;4857771;29;20057;-83
2023/08/10 07:06:51;;;;;;;0.30;0.30;;;;;;;20.70;62.81;99862.63;4838682;29;20069;-83
2023/08/10 07:09:18;;;;;;;0.30;0.30;;;;;;;20.81;62.06;99859.75;4848312;29;20049;-84
2023/08/10 07:11:47;;;;;;;0.30;0.30;;;;;;;20.86;61.98;99863.25;4845307;29;20133;-83
2023/08/10 07:14:15;;;;;;;0.30;0.30;;;;;;;20.97;61.96;99858.50;4859751;29;20083;-82
2023/08/10 07:16:42;;;;;;;0.30;0.30;;;;;;;21.08;61.37;99868.22;4857579;29;20711;-83
2023/08/10 07:19:09;;;;;;;0.30;0.30;;;;;;;21.13;62.07;99868.16;4848046;29;20463;-82
2023/08/10 07:21:37;;;;;;;0.30;0.30;;;;;;;21.44;62.32;99873.28;4847720;29;20106;-83
2023/08/10 07:24:07;;;;;;;0.30;0.30;;;;;;;21.62;61.12;99869.72;4823945;29;20061;-83
2023/08/10 07:26:45;;;;;;;0.30;0.30;;;;;;;21.75;61.31;99879.16;4856993;29;20110;-83
2023/08/10 07:29:14;;;;;;;0.30;0.30;;;;;;;21.86;59.88;99858.66;4870707;29;20060;-83
2023/08/10 07:31:41;;;;;;;0.30;0.30;;;;;;;22.28;59.04;99878.91;4866515;29;20061;-83
2023/08/10 07:34:10;;;;;;;0.30;0.30;;;;;;;22.40;58.26;99864.66;4880016;29;20081;-82
2023/08/10 07:36:38;;;;;;;0.30;0.30;;;;;;;22.28;56.57;99865.16;4863115;29;20076;-83
2023/08/10 07:39:05;;;;;;;0.30;0.30;;;;;;;22.29;57.00;99877.75;4841931;29;20080;-82
2023/08/10 07:41:32;;;;;;;0.30;0.30;;;;;;;22.46;56.42;99871.69;4860507;29;20049;-82
2023/08/10 07:44:04;;;;;;;0.30;0.30;;;;;;;22.43;56.07;99887.97;4872109;29;20053;-83
2023/08/10 07:46:32;;;;;;;0.30;0.30;;;;;;;22.59;56.81;99888.53;4873764;29;20444;-83
2023/08/10 07:49:02;;;;;;;0.30;0.30;;;;;;;23.03;56.36;99878.91;4855068;29;20134;-81
2023/08/10 07:51:29;;;;;;;0.30;0.30;;;;;;;23.35;55.08;99886.25;4862753;29;20049;-81
2023/08/10 07:53:57;;;;;;;0.30;0.30;;;;;;;23.46;54.50;99879.38;4849941;29;20472;-83
2023/08/10 07:56:24;;;;;;;0.30;0.30;;;;;;;23.56;54.21;99872.81;4843496;29;20071;-82
2023/08/10 07:58:54;;;;;;;0.30;0.30;;;;;;;23.66;53.16;99878.09;4852972;29;20072;-80
2023/08/10 08:01:21;;;;;;;0.30;0.30;;;;;;;23.73;52.38;99877.72;4843559;29;20053;-83
2023/08/10 08:03:48;;;;;;;0.30;0.30;;;;;;;23.52;52.08;99869.03;4857158;29;20408;-83
2023/08/10 08:06:18;;;;;;;0.30;0.30;;;;;;;23.41;52.55;99857.44;4878309;23;20089;31
2023/08/10 08:08:46;;;;;;;0.40;0.40;;;;;;;23.53;50.89;99881.72;4818167;29;20560;-83
2023/08/10 08:11:31;;;;;;;0.40;0.40;;;;;;;23.83;51.49;99876.66;4839917;29;20079;-85
2023/08/10 08:13:58;;;;;;;0.32;0.32;;;;;;;23.94;50.68;99865.06;4839212;29;20145;-84
2023/08/10 08:16:25;;;;;;;0.40;0.40;;;;;;;24.21;50.89;99875.16;4811306;29;20054;-82
2023/08/10 08:18:55;;;;;;;0.30;0.30;;;;;;;24.19;49.77;99869.13;4840272;29;20102;-84
2023/08/10 08:21:24;;;;;;;0.20;0.20;;;;;;;24.09;50.20;99872.16;4821200;29;20163;-83
2023/08/10 08:23:53;;;;;;;0.20;0.20;;;;;;;23.59;51.82;99858.41;4836919;29;20046;-83
2023/08/10 08:26:23;;;;;;;0.40;0.40;;;;;;;23.53;51.80;99867.94;4828613;29;20082;-81
2023/08/10 08:28:51;;;;;;;0.40;0.40;;;;;;;24.21;49.74;99863.31;4803954;29;20507;-82
2023/08/10 08:31:21;;;;;;;0.40;0.40;;;;;;;24.88;47.72;99860.44;4824800;29;20094;-82
2023/08/10 08:33:48;;;;;;;0.40;0.40;;;;;;;25.42;46.07;99864.97;4824881;29;20184;-82
2023/08/10 08:36:18;;;;;;;0.40;0.40;;;;;;;25.71;44.96;99867.94;4824956;29;20058;-82
2023/08/10 08:38:45;;;;;;;0.40;0.40;;;;;;;25.96;44.29;99870.25;4824244;29;20085;-83
2023/08/10 08:41:16;;;;;;;0.40;0.40;;;;;;;26.11;44.01;99876.09;4824234;29;20073;-83
2023/08/10 08:43:44;;;;;;;0.40;0.40;;;;;;;26.23;44.06;99867.13;4824030;29;20057;-82
2023/08/10 08:46:16;;;;;;;0.20;0.20;;;;;;;26.43;44.40;99873.91;4823641;29;20149;-83
2023/08/10 08:48:44;;;;;;;0.20;0.20;;;;;;;25.45;45.79;99878.97;4824397;29;20130;-83
2023/08/10 08:51:14;;;;;;;0.20;0.20;;;;;;;24.68;47.29;99887.78;4824557;29;20160;-82
2023/08/10 08:53:41;;;;;;;0.20;0.20;;;;;;;24.22;47.71;99884.25;4824720;29;20422;-80
2023/08/10 08:56:08;;;;;;;0.20;0.20;;;;;;;24.05;48.12;99884.94;4823536;29;20062;-82
2023/08/10 08:58:37;;;;;;;0.20;0.20;;;;;;;24.13;48.33;99881.44;4823937;29;20063;-82
2023/08/10 09:01:05;;;;;;;0.20;0.20;;;;;;;24.16;48.61;99893.78;4824172;29;20476;-82
2023/08/10 09:03:32;;;;;;;0.20;0.20;;;;;;;24.06;47.31;99886.56;4808133;29;20050;-82
2023/08/10 09:06:01;;;;;;;0.20;0.20;;;;;;;24.11;47.66;99888.41;4824408;29;20058;-82
2023/08/10 09:08:30;;;;;;;0.20;0.20;;;;;;;24.21;47.60;99893.66;4808557;29;20062;-82
2023/08/10 09:10:59;;;;;;;0.20;0.20;;;;;;;24.17;46.83;99882.41;4824267;29;20059;-81
2023/08/10 09:13:26;;;;;;;0.30;0.30;;;;;;;23.90;46.98;99896.31;4822994;29;20426;-81
2023/08/10 09:16:09;;;;;;;0.30;0.30;;;;;;;24.08;47.21;99900.88;4823587;29;20664;-82
2023/08/10 09:18:40;;;;;;;0.50;0.50;;;;;;;25.94;45.30;99893.50;4822225;29;20081;-82
2023/08/10 09:21:18;;;;;;;0.50;0.50;;;;;;;27.30;42.00;99894.97;4824137;29;20058;-82
2023/08/10 09:23:53;;;;;;;0.40;0.40;;;;;;;28.14;38.74;99897.78;4823948;29;20119;-81
2023/08/10 09:26:22;;;;;;;0.30;0.30;;;;;;;28.65;38.40;99906.75;4822003;29;20051;-82
2023/08/10 09:28:50;;;;;;;0.20;0.20;;;;;;;28.17;39.13;99897.91;4823768;29;20518;-81
2023/08/10 09:31:25;;;;;;;0.20;0.20;;;;;;;27.13;41.10;99899.41;4824009;29;20065;-82
2023/08/10 09:33:58;;;;;;;0.20;0.20;;;;;;;26.40;42.29;99891.16;4823719;29;20082;-82
2023/08/10 09:36:26;;;;;;;0.20;0.20;;;;;;;25.90;43.59;99895.31;4824110;29;20526;-82
2023/08/10 09:38:57;;;;;;;0.20;0.20;;;;;;;25.46;44.50;99911.00;4807667;29;20422;-82
2023/08/10 09:41:29;;;;;;;0.20;0.20;;;;;;;25.35;45.33;99908.88;4823237;29;20069;-83
2023/08/10 09:43:56;;;;;;;0.20;0.20;;;;;;;25.23;45.45;99903.94;4822132;29;20643;-81
2023/08/10 09:46:23;;;;;;;0.20;0.20;;;;;;;25.13;45.23;99912.50;4823391;29;20047;-83
2023/08/10 09:48:50;;;;;;;0.20;0.20;;;;;;;25.11;44.18;99914.75;4807065;29;20136;-83
2023/08/10 09:51:18;;;;;;;0.20;0.20;;;;;;;25.03;44.05;99916.34;4823534;29;20054;-84
2023/08/10 09:53:45;;;;;;;0.20;0.20;;;;;;;24.99;44.03;99915.34;4834989;29;20092;-81
2023/08/10 09:56:12;;;;;;;0.20;0.20;;;;;;;25.09;44.71;99910.38;4825905;29;20051;-82
2023/08/10 09:58:43;;;;;;;0.25;0.25;;;;;;;25.14;43.71;99909.41;4823385;29;20153;-81
2023/08/10 10:01:16;;;;;;;0.60;0.60;;;;;;;26.45;41.31;99921.44;4822172;29;20061;-83
2023/08/10 10:03:46;;;;;;;0.50;0.50;;;;;;;28.37;37.68;99906.53;4823034;29;20468;-83
2023/08/10 10:06:15;;;;;;;0.20;0.20;;;;;;;28.59;37.79;99911.72;4821723;29;20078;-82
2023/08/10 10:08:56;;;;;;;0.50;0.50;;;;;;;29.36;35.91;99906.34;4831357;29;20066;-82
2023/08/10 10:11:24;;;;;;;0.50;0.50;;;;;;;30.62;34.12;99905.28;4834181;29;20053;-82
2023/08/10 10:13:52;;;;;;;0.40;0.40;;;;;;;31.50;33.55;99913.47;4483748;29;10000239;-81
2023/08/10 10:16:19;;;;;;;0.40;0.40;;;;;;;31.92;33.11;99909.19;4811396;29;20056;-81
2023/08/10 10:18:47;;;;;;;0.40;0.40;;;;;;;32.32;31.87;99914.41;4819393;29;20088;-81
2023/08/10 10:21:15;;;;;;;0.40;0.40;;;;;;;32.91;30.70;99911.50;4802950;29;20062;-81
2023/08/10 10:23:48;;;;;;;0.40;0.40;;;;;;;32.66;29.86;99906.28;4788071;29;20102;-81
2023/08/10 10:27:13;;;;;;;0.40;0.40;;;;;;;31.38;30.86;99913.56;4811836;29;20060;-82
2023/08/10 10:29:46;;;;;;;0.40;0.40;;;;;;;31.28;30.86;99911.31;4805758;29;20061;-80
2023/08/10 10:32:15;;;;;;;0.40;0.40;;;;;;;31.68;31.10;99907.47;4819059;29;20062;-81
2023/08/10 10:34:54;;;;;;;0.40;0.40;;;;;;;32.01;31.39;99907.00;4835734;29;20065;-82
2023/08/10 10:37:32;;;;;;;0.40;0.40;;;;;;;31.89;30.49;99899.56;4789154;29;20110;-85
2023/08/10 10:40:18;;;;;;;0.40;0.40;;;;;;;31.58;31.07;99899.69;4836806;29;20049;-82
2023/08/10 10:43:01;;;;;;;0.40;0.40;;;;;;;31.62;30.93;99900.56;4810781;29;20117;-82
2023/08/10 10:45:33;;;;;;;0.40;0.40;;;;;;;31.81;30.62;99908.16;4836965;29;20060;-81
2023/08/10 10:48:01;;;;;;;0.40;0.40;;;;;;;32.31;29.83;99910.00;4828529;29;20077;-81
2023/08/10 10:50:32;;;;;;;0.40;0.40;;;;;;;32.96;29.24;99909.19;4832475;29;20077;-81
2023/08/10 10:53:02;;;;;;;0.40;0.40;;;;;;;33.46;29.19;99884.03;4816834;29;20093;-82
2023/08/10 10:55:39;;;;;;;0.20;0.20;;;;;;;33.66;29.31;99905.13;4817576;29;20111;-83
2023/08/10 10:58:09;;;;;;;0.10;0.10;;;;;;;30.96;32.87;99902.97;4818799;29;20091;-81
2023/08/10 11:00:36;;;;;;;0.10;0.10;;;;;;;29.37;35.05;99910.78;4804054;29;20054;-82
2023/08/10 11:03:05;;;;;;;0.10;0.10;;;;;;;28.60;36.41;99909.75;4832607;29;20054;-81
2023/08/10 11:05:32;;;;;;;0.10;0.10;;;;;;;28.08;37.74;99899.94;4829265;29;20074;-80
2023/08/10 11:08:06;;;;;;;0.10;0.10;;;;;;;27.39;39.21;99904.03;4855744;29;20057;-81
2023/08/10 11:10:35;;;;;;;0.20;0.20;;;;;;;27.03;40.02;99911.66;4838755;29;20076;-81
2023/08/10 11:13:09;;;;;;;0.20;0.20;;;;;;;26.88;39.85;99905.88;4848563;29;20054;-81
2023/08/10 11:15:36;;;;;;;0.40;0.40;;;;;;;26.97;39.15;99909.44;4847700;29;20983;-80
2023/08/10 11:18:11;;;;;;;0.10;0.10;;;;;;;27.67;37.53;99909.88;4846810;29;20061;-81
2023/08/10 11:20:45;;;;;;;0.20;0.20;;;;;;;27.34;38.01;99901.44;4856834;29;20076;-81
2023/08/10 11:23:12;;;;;;;0.20;0.20;;;;;;;27.27;38.22;99904.75;4832518;29;20505;-81
2023/08/10 11:25:50;;;;;;;0.50;0.50;;;;;;;29.31;35.90;99911.34;4872805;29;20065;-82
2023/08/10 11:28:20;;;;;;;0.50;0.50;;;;;;;31.22;32.35;99909.97;4858599;29;20397;-83
2023/08/10 11:30:48;;;;;;;0.50;0.50;;;;;;;31.97;31.06;99913.69;4875752;29;20064;-82
2023/08/10 11:33:15;;;;;;;0.30;0.30;;;;;;;32.68;30.20;99903.91;4874188;29;20049;-81
2023/08/10 11:35:51;;;;;;;0.40;0.40;;;;;;;33.16;29.84;99909.94;4876555;29;20055;-81
2023/08/10 11:38:21;;;;;;;0.10;0.10;;;;;;;31.80;31.02;99898.94;4864353;29;20061;-81
2023/08/10 11:40:48;;;;;;;0.10;0.10;;;;;;;29.85;33.65;99899.09;4838270;29;20477;-80
2023/08/10 11:43:22;;;;;;;0.10;0.10;;;;;;;28.92;34.19;99910.84;4850910;29;20475;-81
2023/08/10 11:45:50;;;;;;;0.40;0.40;;;;;;;29.79;33.79;99901.31;4839480;29;20050;-81
2023/08/10 11:48:19;;;;;;;0.50;0.50;;;;;;;31.64;30.83;99909.38;4826577;29;20054;-82